createdAt,value
2018-02-17T00:01:18.178Z,2.25
2018-02-17T00:03:46.375Z,2.28
2018-02-17T00:06:14.624Z,2.27
2018-02-17T00:08:42.739Z,2.33
2018-02-17T00:11:10.850Z,2.24
2018-02-17T00:13:38.977Z,2.21
2018-02-17T00:16:07.080Z,2.26
2018-02-17T00:18:35.213Z,2.34
2018-02-17T00:21:03.335Z,2.38
2018-02-17T00:23:31.473Z,2.34
2018-02-17T00:25:59.593Z,2.37
2018-02-17T00:28:27.706Z,2.29
2018-02-17T00:30:55.820Z,2.11
2018-02-17T00:33:23.942Z,2.16
2018-02-17T00:35:52.053Z,2.16
2018-02-17T00:38:20.356Z,2.12
2018-02-17T00:40:48.452Z,2.16
2018-02-17T00:43:16.557Z,2.12
2018-02-17T00:45:44.686Z,2.14
2018-02-17T00:48:12.787Z,2.14
2018-02-17T00:50:40.892Z,2.11
2018-02-17T00:53:09.008Z,2.11
2018-02-17T00:55:37.148Z,2.07
2018-02-17T00:58:05.275Z,2.13
2018-02-17T01:00:33.375Z,2.17
2018-02-17T01:03:01.494Z,2.17
2018-02-17T01:05:29.614Z,2.11
2018-02-17T01:07:57.719Z,2.11
2018-02-17T01:10:25.833Z,2.20
2018-02-17T01:12:53.936Z,2.20
2018-02-17T01:15:22.070Z,2.20
2018-02-17T01:17:50.185Z,2.12
2018-02-17T01:20:18.279Z,2.11
2018-02-17T01:22:46.406Z,2.12
2018-02-17T01:25:14.500Z,2.14
2018-02-17T01:27:42.614Z,2.15
2018-02-17T01:30:10.734Z,2.16
2018-02-17T01:32:38.865Z,2.12
2018-02-17T01:35:06.958Z,2.14
2018-02-17T01:37:35.089Z,2.06
2018-02-17T01:40:03.203Z,2.00
2018-02-17T01:42:31.307Z,2.08
2018-02-17T01:44:59.439Z,2.13
2018-02-17T01:47:27.553Z,2.08
2018-02-17T01:49:55.669Z,2.09
2018-02-17T01:52:23.796Z,2.15
2018-02-17T01:54:51.895Z,2.11
2018-02-17T01:57:20.004Z,2.13
2018-02-17T01:59:48.122Z,2.15
2018-02-17T02:02:16.231Z,2.17
2018-02-17T02:04:44.357Z,2.15
2018-02-17T02:07:12.447Z,2.11
2018-02-17T02:09:40.559Z,2.06
2018-02-17T02:12:08.666Z,2.11
2018-02-17T02:14:36.787Z,2.08
2018-02-17T02:17:04.888Z,2.05
2018-02-17T02:19:33.028Z,1.96
2018-02-17T02:22:01.135Z,2.05
2018-02-17T02:24:29.249Z,1.99
2018-02-17T02:26:57.372Z,2.04
2018-02-17T02:29:25.476Z,2.05
2018-02-17T02:31:53.584Z,2.02
2018-02-17T02:34:21.688Z,1.97
2018-02-17T02:36:49.801Z,1.98
2018-02-17T02:39:17.923Z,1.93
2018-02-17T02:41:46.037Z,1.94
2018-02-17T02:44:14.162Z,2.03
2018-02-17T02:46:42.260Z,1.95
2018-02-17T02:49:10.382Z,1.93
2018-02-17T02:51:38.510Z,1.91
2018-02-17T02:54:06.622Z,1.92
2018-02-17T02:56:34.732Z,1.92
2018-02-17T02:59:02.839Z,2.00
2018-02-17T03:01:31.185Z,1.98
2018-02-17T03:03:59.294Z,2.01
2018-02-17T03:06:27.410Z,1.91
2018-02-17T03:08:55.522Z,1.93
2018-02-17T03:11:23.645Z,1.95
2018-02-17T03:13:51.759Z,1.92
2018-02-17T03:16:19.890Z,1.90
2018-02-17T03:18:48.005Z,1.83
2018-02-17T03:21:16.114Z,1.83
2018-02-17T03:23:44.223Z,1.90
2018-02-17T03:26:12.336Z,1.85
2018-02-17T03:28:40.441Z,1.90
2018-02-17T03:31:08.574Z,1.90
2018-02-17T03:33:36.692Z,1.96
2018-02-17T03:36:04.817Z,1.97
2018-02-17T03:38:32.914Z,1.98
2018-02-17T03:41:01.006Z,2.05
2018-02-17T03:43:29.114Z,2.09
2018-02-17T03:45:57.228Z,2.10
2018-02-17T03:48:25.450Z,2.13
2018-02-17T03:50:53.552Z,2.10
2018-02-17T03:53:21.664Z,2.17
2018-02-17T03:55:49.787Z,2.19
2018-02-17T03:58:17.899Z,2.15
2018-02-17T04:00:46.080Z,2.15
2018-02-17T04:03:14.186Z,2.19
2018-02-17T04:05:42.292Z,2.16
2018-02-17T04:08:10.399Z,2.17
2018-02-17T04:10:38.534Z,2.05
2018-02-17T04:13:06.646Z,1.96
2018-02-17T04:15:34.761Z,1.99
2018-02-17T04:18:02.865Z,2.00
2018-02-17T04:20:30.977Z,1.94
2018-02-17T04:22:59.153Z,1.92
2018-02-17T04:25:27.250Z,2.01
2018-02-17T04:27:55.357Z,2.11
2018-02-17T04:30:23.472Z,2.14
2018-02-17T04:32:51.582Z,2.11
2018-02-17T04:35:19.687Z,2.17
2018-02-17T04:37:47.799Z,2.17
2018-02-17T04:40:16.413Z,2.14
2018-02-17T04:42:58.270Z,2.18
2018-02-17T04:45:41.268Z,2.21
2018-02-17T04:48:20.086Z,2.18
2018-02-17T04:51:01.083Z,2.18
2018-02-17T04:53:34.183Z,2.12
2018-02-17T04:59:15.429Z,2.04
2018-02-17T05:01:43.548Z,2.07
2018-02-17T05:04:12.576Z,2.09
2018-02-17T05:06:51.497Z,2.11
2018-02-17T05:09:20.398Z,2.14
2018-02-17T05:11:48.513Z,2.15
2018-02-17T05:14:19.169Z,2.24
2018-02-17T05:16:50.149Z,2.23
2018-02-17T05:19:18.253Z,2.24
2018-02-17T05:21:46.401Z,2.26
2018-02-17T05:24:14.516Z,2.27
2018-02-17T05:26:42.625Z,2.19
2018-02-17T05:29:15.171Z,2.08
2018-02-17T05:31:43.302Z,2.11
2018-02-17T05:34:14.919Z,2.13
2018-02-17T05:36:44.443Z,2.12
2018-02-17T05:39:12.628Z,2.16
2018-02-17T05:41:45.166Z,2.19
2018-02-17T05:44:16.790Z,2.22
2018-02-17T05:46:47.547Z,2.16
2018-02-17T05:49:16.055Z,2.19
2018-02-17T05:51:44.159Z,2.25
2018-02-17T05:54:12.313Z,2.35
2018-02-17T05:56:40.413Z,2.35
2018-02-17T05:59:08.551Z,2.31
2018-02-17T06:01:36.672Z,2.34
2018-02-17T06:04:04.787Z,2.30
2018-02-17T06:06:32.909Z,2.32
2018-02-17T06:09:01.904Z,2.44
2018-02-17T06:11:30.039Z,2.44
2018-02-17T06:13:58.142Z,2.39
2018-02-17T06:16:26.278Z,2.37
2018-02-17T06:18:54.391Z,2.35
2018-02-17T06:21:22.580Z,2.26
2018-02-17T06:23:50.689Z,2.31
2018-02-17T06:26:18.805Z,2.28
2018-02-17T06:28:46.925Z,2.22
2018-02-17T06:31:15.027Z,2.31
2018-02-17T06:33:43.166Z,2.22
2018-02-17T06:36:11.275Z,2.27
2018-02-17T06:38:39.422Z,2.28
2018-02-17T06:41:07.536Z,2.16
2018-02-17T06:43:35.677Z,2.23
2018-02-17T06:46:03.789Z,2.32
2018-02-17T06:48:31.901Z,2.40
2018-02-17T06:51:00.080Z,2.43
2018-02-17T06:53:28.218Z,2.43
2018-02-17T06:55:56.336Z,2.44
2018-02-17T06:58:24.553Z,2.45
2018-02-17T07:00:52.682Z,2.44
2018-02-17T07:03:20.807Z,2.35
2018-02-17T07:05:48.921Z,2.39
2018-02-17T07:08:17.029Z,2.50
2018-02-17T07:10:45.157Z,2.54
2018-02-17T07:13:16.344Z,2.42
2018-02-17T07:15:44.470Z,2.44
2018-02-17T07:18:12.601Z,2.40
2018-02-17T07:20:40.734Z,2.51
2018-02-17T07:23:08.835Z,2.51
2018-02-17T07:25:36.978Z,2.56
2018-02-17T07:28:05.117Z,2.64
2018-02-17T07:30:33.245Z,2.57
2018-02-17T07:33:01.370Z,2.55
2018-02-17T07:35:29.501Z,2.56
2018-02-17T07:37:57.604Z,2.59
2018-02-17T07:40:25.724Z,2.61
2018-02-17T07:42:53.962Z,2.64
2018-02-17T07:45:22.080Z,2.61
2018-02-17T07:47:50.201Z,2.60
2018-02-17T07:50:18.314Z,2.64
2018-02-17T07:52:46.440Z,2.70
2018-02-17T07:55:14.566Z,2.82
2018-02-17T07:57:42.698Z,2.76
2018-02-17T08:00:10.811Z,2.78
2018-02-17T08:02:38.978Z,2.70
2018-02-17T08:05:07.058Z,2.75
2018-02-17T08:07:35.284Z,2.88
2018-02-17T08:10:03.415Z,3.00
2018-02-17T08:12:31.524Z,3.06
2018-02-17T08:14:59.641Z,3.13
2018-02-17T08:17:27.773Z,3.10
2018-02-17T08:19:55.886Z,3.20
2018-02-17T08:22:24.014Z,3.22
2018-02-17T08:24:52.141Z,3.28
2018-02-17T08:27:20.259Z,3.36
2018-02-17T08:29:48.388Z,3.35
2018-02-17T08:32:16.514Z,3.36
2018-02-17T08:34:44.695Z,3.40
2018-02-17T08:37:12.801Z,3.43
2018-02-17T08:39:40.936Z,3.53
2018-02-17T08:42:09.640Z,3.63
2018-02-17T08:44:37.753Z,3.62
2018-02-17T08:47:05.896Z,3.68
2018-02-17T08:49:34.004Z,3.77
2018-02-17T08:52:02.135Z,3.88
2018-02-17T08:54:30.261Z,3.81
2018-02-17T08:56:58.374Z,3.86
2018-02-17T08:59:26.572Z,3.98
2018-02-17T09:01:54.703Z,4.09
2018-02-17T09:04:22.940Z,4.07
2018-02-17T09:06:51.032Z,4.13
2018-02-17T09:09:19.186Z,4.20
2018-02-17T09:11:47.330Z,4.20
2018-02-17T09:14:15.445Z,4.26
2018-02-17T09:16:43.555Z,4.60
2018-02-17T09:19:11.701Z,4.34
2018-02-17T09:21:39.848Z,4.40
2018-02-17T09:24:07.968Z,4.30
2018-02-17T09:26:36.108Z,4.27
2018-02-17T09:29:04.221Z,4.42
2018-02-17T09:31:32.340Z,4.56
2018-02-17T09:34:00.445Z,4.51
2018-02-17T09:36:28.566Z,4.54
2018-02-17T09:38:56.803Z,4.63
2018-02-17T09:41:25.466Z,4.62
2018-02-17T09:43:54.638Z,4.69
2018-02-17T09:46:22.759Z,4.79
2018-02-17T09:48:50.854Z,4.78
2018-02-17T09:51:18.971Z,4.95
2018-02-17T09:53:47.100Z,5.10
2018-02-17T09:56:15.236Z,5.03
2018-02-17T09:58:43.356Z,4.90
2018-02-17T10:01:11.505Z,5.12
2018-02-17T10:03:39.618Z,5.19
2018-02-17T10:06:07.792Z,5.13
2018-02-17T10:08:35.918Z,5.33
2018-02-17T10:11:04.116Z,5.43
2018-02-17T10:13:32.235Z,5.48
2018-02-17T10:16:00.356Z,5.54
2018-02-17T10:18:28.501Z,5.63
2018-02-17T10:20:56.599Z,5.56
2018-02-17T10:23:24.726Z,5.63
2018-02-17T10:25:52.861Z,5.68
2018-02-17T10:28:21.176Z,5.94
2018-02-17T10:30:49.291Z,5.90
2018-02-17T10:33:17.437Z,6.19
2018-02-17T10:35:45.556Z,6.31
2018-02-17T10:38:13.692Z,6.43
2018-02-17T10:40:41.792Z,6.65
2018-02-17T10:43:09.958Z,6.47
2018-02-17T10:45:38.080Z,6.58
2018-02-17T10:48:06.199Z,6.64
2018-02-17T10:50:34.358Z,6.61
2018-02-17T10:53:02.423Z,6.70
2018-02-17T10:55:36.130Z,6.80
2018-02-17T10:58:04.253Z,7.09
2018-02-17T11:00:32.443Z,6.55
2018-02-17T11:03:00.589Z,6.73
2018-02-17T11:05:28.716Z,6.78
2018-02-17T11:07:56.846Z,6.74
2018-02-17T11:10:24.961Z,6.80
2018-02-17T11:12:53.096Z,6.89
2018-02-17T11:15:21.224Z,6.78
2018-02-17T11:17:49.363Z,6.94
2018-02-17T11:20:17.637Z,7.04
2018-02-17T11:22:45.765Z,7.16
2018-02-17T11:25:13.899Z,7.41
2018-02-17T11:27:42.014Z,7.34
2018-02-17T11:30:10.140Z,7.47
2018-02-17T11:32:38.273Z,7.45
2018-02-17T11:35:06.397Z,7.35
2018-02-17T11:37:34.534Z,7.29
2018-02-17T11:40:02.659Z,7.39
2018-02-17T11:42:30.785Z,7.26
2018-02-17T11:44:58.930Z,7.41
2018-02-17T11:47:27.115Z,7.60
2018-02-17T11:49:55.260Z,7.60
2018-02-17T11:52:23.367Z,7.59
2018-02-17T11:54:51.495Z,7.69
2018-02-17T11:57:19.640Z,7.89
2018-02-17T11:59:47.780Z,7.86
2018-02-17T12:02:15.913Z,7.90
2018-02-17T12:04:44.038Z,7.58
2018-02-17T12:07:12.170Z,7.70
2018-02-17T12:09:40.308Z,7.67
2018-02-17T12:12:08.440Z,8.20
2018-02-17T12:14:36.687Z,8.05
2018-02-17T12:17:04.906Z,7.82
2018-02-17T12:19:33.047Z,7.79
2018-02-17T12:22:01.606Z,7.56
2018-02-17T12:24:30.133Z,7.77
2018-02-17T12:26:58.389Z,8.26
2018-02-17T12:29:26.563Z,9.47
2018-02-17T12:31:54.685Z,8.55
2018-02-17T12:34:22.851Z,8.40
2018-02-17T12:36:50.948Z,8.63
2018-02-17T12:39:19.065Z,8.27
2018-02-17T12:41:47.200Z,8.26
2018-02-17T12:44:15.330Z,8.51
2018-02-17T12:46:43.474Z,9.77
2018-02-17T12:49:11.604Z,9.61
2018-02-17T12:51:39.715Z,9.23
2018-02-17T12:54:07.832Z,8.59
2018-02-17T12:56:35.984Z,8.38
2018-02-17T12:59:04.097Z,8.53
2018-02-17T13:01:32.237Z,8.01
2018-02-17T13:04:00.350Z,8.01
2018-02-17T13:06:29.368Z,8.11
2018-02-17T13:08:57.585Z,8.24
2018-02-17T13:11:25.691Z,8.00
2018-02-17T13:13:53.825Z,8.09
2018-02-17T13:16:21.939Z,8.22
2018-02-17T13:18:50.089Z,8.14
2018-02-17T13:21:18.223Z,8.26
2018-02-17T13:23:46.335Z,8.31
2018-02-17T13:26:14.541Z,7.96
2018-02-17T13:28:42.685Z,8.13
2018-02-17T13:31:10.810Z,7.94
2018-02-17T13:33:38.949Z,8.07
2018-02-17T13:36:07.083Z,8.26
2018-02-17T13:38:35.203Z,7.95
2018-02-17T13:41:03.332Z,8.04
2018-02-17T13:43:31.450Z,8.21
2018-02-17T13:45:59.604Z,8.32
2018-02-17T13:48:27.732Z,8.23
2018-02-17T13:50:55.888Z,8.10
2018-02-17T13:53:24.031Z,8.06
2018-02-17T13:55:52.146Z,7.97
2018-02-17T13:58:20.287Z,8.53
2018-02-17T14:00:48.413Z,8.08
2018-02-17T14:03:16.526Z,8.16
2018-02-17T14:05:44.653Z,8.22
2018-02-17T14:08:12.773Z,8.24
2018-02-17T14:10:40.893Z,8.22
2018-02-17T14:13:09.037Z,8.12
2018-02-17T14:15:37.174Z,8.22
2018-02-17T14:18:05.298Z,8.14
2018-02-17T14:20:33.447Z,8.20
2018-02-17T14:23:01.585Z,8.18
2018-02-17T14:25:29.681Z,8.23
2018-02-17T14:27:57.819Z,8.18
2018-02-17T14:30:25.950Z,7.88
2018-02-17T14:32:54.074Z,7.86
2018-02-17T14:35:22.237Z,8.04
2018-02-17T14:37:50.728Z,7.97
2018-02-17T14:40:18.907Z,7.98
2018-02-17T14:42:47.068Z,7.89
2018-02-17T14:45:15.208Z,7.93
2018-02-17T14:47:43.323Z,7.99
2018-02-17T14:50:11.445Z,8.03
2018-02-17T14:52:39.569Z,8.09
2018-02-17T14:55:07.714Z,8.14
2018-02-17T14:57:35.844Z,8.06
2018-02-17T15:00:04.092Z,7.99
2018-02-17T15:02:32.223Z,8.09
2018-02-17T15:05:00.340Z,7.84
2018-02-17T15:07:28.460Z,7.91
2018-02-17T15:09:56.646Z,7.86
2018-02-17T15:12:24.780Z,8.01
2018-02-17T15:14:52.899Z,7.93
2018-02-17T15:17:21.004Z,7.58
2018-02-17T15:19:49.159Z,7.74
2018-02-17T15:22:17.291Z,7.65
2018-02-17T15:24:45.433Z,7.64
2018-02-17T15:27:13.538Z,7.57
2018-02-17T15:29:41.696Z,7.54
2018-02-17T15:32:09.802Z,7.44
2018-02-17T15:34:37.941Z,7.51
2018-02-17T15:37:06.043Z,7.63
2018-02-17T15:39:34.182Z,7.94
2018-02-17T15:42:02.287Z,7.75
2018-02-17T15:44:30.423Z,7.70
2018-02-17T15:46:58.552Z,7.57
2018-02-17T15:49:27.397Z,7.50
2018-02-17T15:51:55.496Z,7.50
2018-02-17T15:54:23.615Z,7.46
2018-02-17T15:56:51.724Z,7.56
2018-02-17T15:59:19.852Z,7.55
2018-02-17T16:01:47.985Z,7.33
2018-02-17T16:04:16.122Z,7.36
2018-02-17T16:06:44.216Z,7.50
2018-02-17T16:09:12.361Z,7.37
2018-02-17T16:11:40.500Z,7.31
2018-02-17T16:14:08.621Z,7.31
2018-02-17T16:16:36.816Z,7.16
2018-02-17T16:19:04.934Z,7.19
2018-02-17T16:21:33.053Z,7.16
2018-02-17T16:24:01.195Z,7.11
2018-02-17T16:26:29.313Z,7.20
2018-02-17T16:28:57.425Z,7.06
2018-02-17T16:31:25.576Z,6.84
2018-02-17T16:33:53.701Z,6.96
2018-02-17T16:36:21.829Z,6.94
2018-02-17T16:38:49.954Z,7.09
2018-02-17T16:41:18.081Z,6.88
2018-02-17T16:43:46.233Z,6.74
2018-02-17T16:46:14.357Z,7.46
2018-02-17T16:48:42.464Z,6.86
2018-02-17T16:51:10.593Z,6.60
2018-02-17T16:53:38.714Z,6.45
2018-02-17T16:56:06.831Z,6.29
2018-02-17T16:58:38.488Z,6.20
2018-02-17T17:01:06.602Z,6.20
2018-02-17T17:03:34.735Z,6.06
2018-02-17T17:06:02.835Z,5.96
2018-02-17T17:08:30.974Z,5.86
2018-02-17T17:10:59.089Z,5.80
2018-02-17T17:13:27.221Z,5.68
2018-02-17T17:15:55.337Z,5.63
2018-02-17T17:18:23.709Z,5.59
2018-02-17T17:20:51.868Z,5.54
2018-02-17T17:23:20.038Z,5.47
2018-02-17T17:25:48.179Z,5.43
2018-02-17T17:28:16.319Z,5.36
2018-02-17T17:30:44.407Z,5.34
2018-02-17T17:33:12.558Z,5.31
2018-02-17T17:35:40.678Z,5.30
2018-02-17T17:38:08.794Z,5.16
2018-02-17T17:40:36.919Z,5.11
2018-02-17T17:43:05.049Z,5.09
2018-02-17T17:45:33.185Z,4.99
2018-02-17T17:48:01.350Z,4.90
2018-02-17T17:50:29.412Z,4.89
2018-02-17T17:52:57.522Z,4.81
2018-02-17T17:55:25.653Z,4.78
2018-02-17T17:57:53.758Z,4.66
2018-02-17T18:00:21.892Z,4.65
2018-02-17T18:02:50.002Z,4.64
2018-02-17T18:05:18.128Z,4.59
2018-02-17T18:07:46.236Z,4.54
2018-02-17T18:10:14.363Z,4.48
2018-02-17T18:12:42.464Z,4.42
2018-02-17T18:15:10.667Z,4.35
2018-02-17T18:17:38.784Z,4.29
2018-02-17T18:20:06.936Z,4.24
2018-02-17T18:22:35.067Z,4.23
2018-02-17T18:25:03.242Z,4.13
2018-02-17T18:27:31.373Z,4.23
2018-02-17T18:30:00.104Z,4.13
2018-02-17T18:32:28.221Z,4.05
2018-02-17T18:34:56.483Z,4.06
2018-02-17T18:37:28.037Z,4.02
2018-02-17T18:39:56.141Z,3.96
2018-02-17T18:42:24.256Z,3.87
2018-02-17T18:44:52.377Z,3.82
2018-02-17T18:47:20.506Z,3.83
2018-02-17T18:49:48.631Z,3.80
2018-02-17T18:52:16.780Z,3.75
2018-02-17T18:54:44.905Z,3.67
2018-02-17T18:57:13.019Z,3.68
2018-02-17T18:59:41.127Z,3.63
2018-02-17T19:02:09.241Z,3.67
2018-02-17T19:04:37.368Z,3.78
2018-02-17T19:07:05.479Z,3.62
2018-02-17T19:09:33.624Z,3.68
2018-02-17T19:12:01.818Z,3.66
2018-02-17T19:14:29.916Z,3.67
2018-02-17T19:16:58.075Z,3.71
2018-02-17T19:19:26.189Z,3.66
2018-02-17T19:21:54.309Z,3.60
2018-02-17T19:24:22.532Z,3.62
2018-02-17T19:26:50.806Z,3.57
2018-02-17T19:29:18.983Z,3.48
2018-02-17T19:31:47.126Z,3.46
2018-02-17T19:34:17.632Z,3.43
2018-02-17T19:36:46.207Z,3.43
2018-02-17T19:39:14.755Z,3.48
2018-02-17T19:41:43.284Z,3.47
2018-02-17T19:44:12.068Z,3.33
2018-02-17T19:46:40.609Z,3.32
2018-02-17T19:49:08.763Z,3.27
2018-02-17T19:51:37.792Z,3.13
2018-02-17T19:54:05.906Z,3.15
2018-02-17T19:56:34.041Z,3.26
2018-02-17T19:59:02.150Z,3.23
2018-02-17T20:01:30.252Z,3.27
2018-02-17T20:03:58.415Z,3.22
2018-02-17T20:06:26.537Z,3.27
2018-02-17T20:08:54.656Z,3.23
2018-02-17T20:11:22.794Z,3.33
2018-02-17T20:13:50.952Z,3.29
2018-02-17T20:16:19.288Z,3.28
2018-02-17T20:18:47.472Z,3.16
2018-02-17T20:21:15.604Z,3.16
2018-02-17T20:23:43.724Z,3.15
2018-02-17T20:26:11.860Z,3.09
2018-02-17T20:28:39.964Z,3.00
2018-02-17T20:31:08.093Z,2.87
2018-02-17T20:33:36.209Z,2.89
2018-02-17T20:36:04.354Z,2.83
2018-02-17T20:38:32.465Z,2.80
2018-02-17T20:41:00.597Z,2.75
2018-02-17T20:43:28.756Z,2.77
2018-02-17T20:45:56.844Z,2.67
2018-02-17T20:48:25.690Z,2.72
2018-02-17T20:50:53.841Z,2.63
2018-02-17T20:53:21.906Z,2.62
2018-02-17T20:55:50.017Z,2.49
2018-02-17T20:58:18.250Z,2.50
2018-02-17T21:00:46.328Z,2.37
2018-02-17T21:03:14.475Z,2.47
2018-02-17T21:05:42.610Z,2.40
2018-02-17T21:08:10.736Z,2.42
2018-02-17T21:10:38.821Z,2.40
2018-02-17T21:13:06.954Z,2.40
2018-02-17T21:15:35.243Z,2.36
2018-02-17T21:18:03.404Z,2.27
2018-02-17T21:20:31.525Z,2.22
2018-02-17T21:22:59.650Z,2.21
2018-02-17T21:25:27.780Z,2.16
2018-02-17T21:27:55.896Z,2.22
2018-02-17T21:30:24.012Z,2.16
2018-02-17T21:32:52.245Z,2.09
2018-02-17T21:35:20.369Z,2.08
2018-02-17T21:37:48.491Z,2.10
2018-02-17T21:40:16.605Z,2.05
2018-02-17T21:42:44.729Z,2.01
2018-02-17T21:45:12.857Z,2.01
2018-02-17T21:47:40.967Z,2.04
2018-02-17T21:50:09.084Z,1.97
2018-02-17T21:52:37.197Z,1.88
2018-02-17T21:55:05.344Z,1.91
2018-02-17T21:57:33.460Z,1.95
2018-02-17T22:00:01.655Z,1.91
2018-02-17T22:02:29.717Z,1.91
2018-02-17T22:04:57.886Z,1.87
2018-02-17T22:07:25.998Z,1.94
2018-02-17T22:09:54.125Z,1.94
2018-02-17T22:12:22.243Z,1.85
2018-02-17T22:14:50.380Z,1.97
2018-02-17T22:17:18.522Z,1.90
2018-02-17T22:19:46.641Z,1.85
2018-02-17T22:22:14.760Z,1.86
2018-02-17T22:24:42.889Z,1.79
2018-02-17T22:27:11.014Z,1.76
2018-02-17T22:29:39.155Z,1.74
2018-02-17T22:32:07.263Z,1.76
2018-02-17T22:34:35.392Z,1.70
2018-02-17T22:37:03.520Z,1.63
2018-02-17T22:39:31.639Z,1.72
2018-02-17T22:41:59.789Z,1.72
2018-02-17T22:44:27.898Z,1.70
2018-02-17T22:46:56.038Z,1.59
2018-02-17T22:49:24.154Z,1.58
2018-02-17T22:51:52.269Z,1.59
2018-02-17T22:54:20.398Z,1.66
2018-02-17T22:56:50.444Z,1.73
2018-02-17T22:59:18.625Z,1.64
2018-02-17T23:01:46.731Z,1.69
2018-02-17T23:04:14.858Z,1.68
2018-02-17T23:06:42.996Z,1.55
2018-02-17T23:09:11.119Z,1.57
2018-02-17T23:11:39.313Z,1.53
2018-02-17T23:14:07.440Z,1.55
2018-02-17T23:16:35.561Z,1.52
2018-02-17T23:19:03.721Z,1.55
2018-02-17T23:21:31.812Z,1.48
2018-02-17T23:23:59.912Z,1.49
2018-02-17T23:26:28.035Z,1.38
2018-02-17T23:28:56.154Z,1.33
2018-02-17T23:31:24.284Z,1.38
2018-02-17T23:33:52.399Z,1.43
2018-02-17T23:36:20.507Z,1.43
2018-02-17T23:38:48.615Z,1.33
2018-02-17T23:41:16.760Z,1.31
2018-02-17T23:43:44.871Z,1.37
2018-02-17T23:46:13.008Z,1.34
2018-02-17T23:48:41.126Z,1.26
2018-02-17T23:51:09.239Z,1.30
2018-02-17T23:53:37.378Z,1.30
2018-02-17T23:56:05.500Z,1.30
2018-02-17T23:58:33.608Z,1.17
